createdAt,value
2018-07-07T00:00:23.053Z,10.43
2018-07-07T00:02:51.631Z,11.17
2018-07-07T00:05:20.220Z,10.27
2018-07-07T00:07:48.912Z,12.13
2018-07-07T00:10:17.808Z,11.93
2018-07-07T00:12:46.520Z,12.30
2018-07-07T00:15:17.508Z,11.13
2018-07-07T00:17:46.888Z,11.37
2018-07-07T00:20:16.200Z,11.63
2018-07-07T00:22:45.237Z,11.80
2018-07-07T00:25:16.048Z,11.80
2018-07-07T00:27:45.684Z,11.20
2018-07-07T00:30:14.384Z,10.67
2018-07-07T00:32:43.144Z,11.27
2018-07-07T00:35:11.813Z,11.27
2018-07-07T00:37:40.664Z,11.70
2018-07-07T00:40:10.100Z,11.50
2018-07-07T00:42:39.281Z,11.47
2018-07-07T00:45:08.008Z,10.57
2018-07-07T00:47:36.733Z,10.70
2018-07-07T00:50:06.306Z,12.70
2018-07-07T00:52:35.124Z,11.40
2018-07-07T00:55:04.641Z,11.17
2018-07-07T00:57:33.228Z,10.93
2018-07-07T01:00:01.859Z,12.03
2018-07-07T01:02:30.443Z,12.13
2018-07-07T01:04:59.001Z,11.57
2018-07-07T01:07:27.680Z,11.53
2018-07-07T01:09:56.231Z,11.13
2018-07-07T01:12:24.853Z,10.33
2018-07-07T01:14:53.404Z,11.10
2018-07-07T01:17:21.940Z,11.40
2018-07-07T01:19:57.008Z,10.60
2018-07-07T01:22:25.608Z,11.07
2018-07-07T01:24:54.240Z,10.90
2018-07-07T01:27:22.801Z,11.90
2018-07-07T01:29:51.404Z,11.77
2018-07-07T01:32:20.017Z,12.60
2018-07-07T01:34:48.600Z,11.77
2018-07-07T01:37:17.444Z,11.50
2018-07-07T01:39:46.092Z,11.77
2018-07-07T01:42:14.725Z,13.40
2018-07-07T01:44:43.298Z,12.77
2018-07-07T01:47:11.883Z,12.27
2018-07-07T01:49:40.520Z,14.60
2018-07-07T01:52:09.065Z,13.00
2018-07-07T01:54:37.680Z,13.33
2018-07-07T01:57:06.272Z,14.17
2018-07-07T01:59:35.012Z,12.60
2018-07-07T02:02:03.725Z,12.70
2018-07-07T02:04:32.372Z,13.30
2018-07-07T02:07:00.960Z,12.10
2018-07-07T02:09:29.592Z,13.97
2018-07-07T02:11:58.149Z,14.97
2018-07-07T02:14:26.712Z,15.17
2018-07-07T02:16:55.376Z,13.63
2018-07-07T02:19:23.993Z,14.37
2018-07-07T02:21:52.549Z,13.83
2018-07-07T02:24:21.108Z,13.53
2018-07-07T02:26:49.701Z,12.50
2018-07-07T02:29:18.355Z,12.33
2018-07-07T02:31:47.180Z,11.80
2018-07-07T02:34:15.799Z,13.80
2018-07-07T02:36:44.541Z,12.83
2018-07-07T02:39:13.180Z,12.73
2018-07-07T02:41:41.718Z,11.87
2018-07-07T02:44:10.373Z,12.90
2018-07-07T02:46:38.968Z,11.60
2018-07-07T02:49:07.624Z,12.70
2018-07-07T02:51:36.277Z,12.93
2018-07-07T02:54:04.809Z,10.97
2018-07-07T02:56:33.680Z,11.90
2018-07-07T02:59:02.229Z,11.20
2018-07-07T03:01:30.833Z,11.23
2018-07-07T03:03:59.421Z,11.77
2018-07-07T03:06:28.064Z,11.33
2018-07-07T03:08:56.852Z,11.60
2018-07-07T03:11:25.520Z,12.27
2018-07-07T03:13:54.161Z,13.23
2018-07-07T03:16:22.833Z,13.67
2018-07-07T03:18:51.408Z,13.93
2018-07-07T03:21:20.124Z,14.10
2018-07-07T03:23:48.684Z,13.00
2018-07-07T03:26:17.294Z,14.87
2018-07-07T03:28:46.024Z,14.00
2018-07-07T03:31:14.704Z,14.83
2018-07-07T03:33:43.521Z,14.73
2018-07-07T03:36:12.272Z,14.63
2018-07-07T03:38:40.896Z,14.50
2018-07-07T03:41:09.493Z,13.47
2018-07-07T03:43:38.060Z,15.03
2018-07-07T03:46:07.131Z,15.20
2018-07-07T03:48:35.900Z,13.70
2018-07-07T03:51:04.509Z,14.33
2018-07-07T03:53:33.218Z,13.20
2018-07-07T03:56:01.781Z,13.47
2018-07-07T03:58:30.440Z,13.30
2018-07-07T04:00:59.077Z,12.80
2018-07-07T04:03:27.648Z,13.03
2018-07-07T04:05:56.280Z,13.47
2018-07-07T04:08:24.884Z,13.30
2018-07-07T04:10:53.490Z,13.03
2018-07-07T04:13:22.204Z,13.90
2018-07-07T04:15:50.736Z,13.00
2018-07-07T04:18:31.384Z,13.10
2018-07-07T04:21:00.327Z,12.80
2018-07-07T04:23:29.004Z,13.37
2018-07-07T04:25:57.568Z,14.47
2018-07-07T04:28:26.436Z,12.73
2018-07-07T04:30:55.037Z,15.77
2018-07-07T04:33:23.609Z,14.60
2018-07-07T04:35:52.469Z,15.13
2018-07-07T04:38:21.119Z,14.20
2018-07-07T04:40:50.033Z,14.20
2018-07-07T04:43:19.273Z,14.03
2018-07-07T04:45:48.276Z,12.03
2018-07-07T04:48:17.189Z,13.90
2018-07-07T04:50:45.808Z,13.00
2018-07-07T04:53:14.461Z,13.40
2018-07-07T04:55:43.156Z,14.50
2018-07-07T04:58:11.848Z,13.40
2018-07-07T05:00:40.472Z,12.87
2018-07-07T05:03:10.140Z,12.57
2018-07-07T05:05:38.805Z,13.07
2018-07-07T05:08:07.357Z,12.93
2018-07-07T05:10:35.967Z,11.67
2018-07-07T05:13:04.622Z,12.40
2018-07-07T05:15:33.287Z,12.70
2018-07-07T05:18:01.792Z,12.63
2018-07-07T05:20:30.456Z,11.27
2018-07-07T05:22:59.028Z,11.73
2018-07-07T05:25:27.884Z,11.17
2018-07-07T05:27:56.548Z,12.30
2018-07-07T05:30:25.144Z,12.23
2018-07-07T05:32:53.864Z,12.53
2018-07-07T05:35:22.550Z,12.23
2018-07-07T05:37:51.157Z,11.73
2018-07-07T05:40:19.792Z,11.57
2018-07-07T05:42:48.400Z,11.90
2018-07-07T05:45:17.020Z,12.77
2018-07-07T05:47:45.632Z,12.50
2018-07-07T05:50:14.237Z,12.07
2018-07-07T05:52:42.812Z,11.77
2018-07-07T05:55:11.391Z,11.30
2018-07-07T05:57:40.009Z,12.77
2018-07-07T06:00:08.602Z,11.97
2018-07-07T06:02:37.224Z,12.50
2018-07-07T06:05:06.329Z,13.80
2018-07-07T06:07:35.000Z,12.93
2018-07-07T06:10:03.728Z,13.17
2018-07-07T06:12:32.252Z,14.00
2018-07-07T06:15:00.824Z,13.00
2018-07-07T06:17:29.371Z,13.30
2018-07-07T06:19:57.952Z,13.77
2018-07-07T06:22:26.620Z,11.73
2018-07-07T06:24:55.144Z,13.00
2018-07-07T06:27:23.935Z,12.93
2018-07-07T06:29:52.559Z,12.73
2018-07-07T06:32:21.173Z,12.97
2018-07-07T06:34:49.972Z,12.80
2018-07-07T06:37:18.622Z,12.43
2018-07-07T06:39:47.246Z,11.93
2018-07-07T06:42:15.801Z,12.83
2018-07-07T06:44:44.564Z,12.30
2018-07-07T06:47:13.311Z,12.20
2018-07-07T06:49:41.969Z,12.23
2018-07-07T06:52:10.584Z,10.63
2018-07-07T06:54:39.128Z,11.77
2018-07-07T06:57:07.668Z,11.03
2018-07-07T06:59:36.312Z,11.67
2018-07-07T07:02:05.056Z,12.07
2018-07-07T07:04:33.928Z,10.90
2018-07-07T07:07:02.547Z,12.07
2018-07-07T07:09:31.248Z,11.50
2018-07-07T07:11:59.942Z,10.70
2018-07-07T07:14:28.589Z,9.77
2018-07-07T07:16:57.265Z,10.83
2018-07-07T07:19:25.920Z,9.97
2018-07-07T07:21:54.529Z,10.13
2018-07-07T07:24:23.189Z,9.63
2018-07-07T07:26:53.763Z,7.33
2018-07-07T07:29:23.530Z,3.37
2018-07-07T07:31:52.180Z,3.83
2018-07-07T07:34:20.737Z,4.00
2018-07-07T07:36:49.433Z,4.00
2018-07-07T07:39:18.089Z,3.90
2018-07-07T07:41:46.924Z,4.07
2018-07-07T07:44:16.146Z,4.17
2018-07-07T07:46:44.940Z,3.97
2018-07-07T07:49:13.614Z,4.07
2018-07-07T07:51:42.172Z,3.77
2018-07-07T07:54:10.912Z,5.00
2018-07-07T07:56:39.476Z,4.00
2018-07-07T07:59:08.056Z,4.10
2018-07-07T08:01:36.617Z,4.00
2018-07-07T08:04:05.188Z,4.63
2018-07-07T08:06:34.012Z,4.17
2018-07-07T08:09:02.584Z,3.83
2018-07-07T08:11:31.144Z,3.60
2018-07-07T08:13:59.764Z,4.27
2018-07-07T08:16:28.308Z,4.97
2018-07-07T08:18:56.976Z,4.30
2018-07-07T08:21:25.495Z,3.80
2018-07-07T08:23:54.148Z,4.10
2018-07-07T08:26:22.897Z,4.20
2018-07-07T08:28:51.432Z,4.50
2018-07-07T08:31:20.472Z,3.97
2018-07-07T08:33:49.128Z,3.87
2018-07-07T08:36:17.721Z,4.73
2018-07-07T08:38:46.266Z,5.53
2018-07-07T08:41:15.448Z,4.80
2018-07-07T08:43:44.048Z,3.97
2018-07-07T08:46:12.676Z,3.80
2018-07-07T08:48:41.256Z,3.70
2018-07-07T08:51:09.962Z,4.47
2018-07-07T08:53:38.548Z,4.00
2018-07-07T08:56:07.121Z,4.40
2018-07-07T08:58:35.651Z,4.00
2018-07-07T09:01:04.213Z,3.83
2018-07-07T09:03:32.820Z,5.00
2018-07-07T09:06:01.393Z,4.60
2018-07-07T09:08:30.184Z,3.70
2018-07-07T09:10:58.824Z,5.17
2018-07-07T09:13:27.376Z,4.47
2018-07-07T09:15:56.029Z,4.90
2018-07-07T09:18:24.609Z,4.67
2018-07-07T09:20:53.196Z,5.13
2018-07-07T09:23:21.800Z,5.23
2018-07-07T09:25:50.360Z,4.97
2018-07-07T09:28:18.931Z,4.70
2018-07-07T09:30:47.564Z,5.73
2018-07-07T09:33:16.096Z,5.93
2018-07-07T09:35:44.672Z,5.30
2018-07-07T09:38:13.264Z,5.47
2018-07-07T09:40:41.842Z,5.43
2018-07-07T09:43:10.460Z,4.80
2018-07-07T09:45:39.288Z,8.40
2018-07-07T09:48:08.047Z,7.50
2018-07-07T09:50:36.643Z,7.50
2018-07-07T09:53:05.484Z,7.77
2018-07-07T09:55:34.061Z,9.20
2018-07-07T09:58:02.940Z,8.17
2018-07-07T10:00:36.849Z,8.13
2018-07-07T10:03:05.706Z,7.70
2018-07-07T10:05:34.352Z,6.57
2018-07-07T10:08:03.012Z,7.47
2018-07-07T10:10:32.062Z,6.70
2018-07-07T10:13:00.653Z,6.40
2018-07-07T10:15:29.406Z,7.50
2018-07-07T10:17:58.028Z,7.43
2018-07-07T10:20:27.084Z,7.00
2018-07-07T10:22:56.007Z,7.60
2018-07-07T10:25:24.588Z,6.83
2018-07-07T10:27:53.363Z,6.60
2018-07-07T10:30:21.969Z,5.60
2018-07-07T10:32:50.581Z,7.20
2018-07-07T10:35:19.321Z,6.17
2018-07-07T10:37:47.956Z,6.40
2018-07-07T10:40:16.603Z,6.53
2018-07-07T10:42:45.272Z,5.93
2018-07-07T10:45:13.965Z,5.40
2018-07-07T10:47:42.580Z,6.80
2018-07-07T10:50:11.252Z,5.97
2018-07-07T10:52:40.103Z,5.80
2018-07-07T10:55:08.652Z,5.40
2018-07-07T10:57:37.232Z,6.13
2018-07-07T11:00:06.804Z,7.00
2018-07-07T11:02:35.487Z,6.80
2018-07-07T11:05:04.219Z,6.70
2018-07-07T11:07:32.966Z,5.83
2018-07-07T11:10:01.550Z,7.30
2018-07-07T11:12:30.118Z,7.00
2018-07-07T11:14:58.751Z,6.20
2018-07-07T11:17:27.402Z,6.77
2018-07-07T11:19:56.291Z,6.40
2018-07-07T11:22:24.796Z,5.40
2018-07-07T11:24:53.906Z,6.40
2018-07-07T11:27:22.440Z,6.00
2018-07-07T11:29:51.130Z,5.50
2018-07-07T11:32:19.640Z,5.73
2018-07-07T11:34:48.248Z,5.30
2018-07-07T11:37:16.864Z,5.87
2018-07-07T11:39:45.928Z,6.23
2018-07-07T11:42:15.019Z,5.50
2018-07-07T11:44:43.540Z,6.00
2018-07-07T11:47:12.148Z,5.33
2018-07-07T11:49:40.752Z,5.13
2018-07-07T11:52:09.561Z,5.43
2018-07-07T11:54:38.264Z,5.20
2018-07-07T11:57:06.949Z,5.53
2018-07-07T11:59:35.472Z,9.90
2018-07-07T12:02:04.152Z,6.40
2018-07-07T12:04:32.799Z,4.63
2018-07-07T12:07:01.576Z,5.93
2018-07-07T12:09:30.249Z,6.70
2018-07-07T12:11:58.940Z,5.10
2018-07-07T12:14:27.585Z,4.70
2018-07-07T12:16:56.258Z,6.30
2018-07-07T12:19:25.331Z,6.30
2018-07-07T12:21:54.040Z,6.10
2018-07-07T12:24:22.581Z,5.67
2018-07-07T12:26:51.185Z,5.80
2018-07-07T12:29:19.992Z,7.03
2018-07-07T12:31:48.684Z,5.13
2018-07-07T12:34:17.222Z,5.77
2018-07-07T12:36:45.845Z,5.23
2018-07-07T12:39:14.460Z,4.60
2018-07-07T12:41:43.092Z,4.33
2018-07-07T12:44:11.970Z,5.13
2018-07-07T12:46:40.616Z,5.53
2018-07-07T12:49:09.740Z,5.40
2018-07-07T12:51:38.382Z,5.53
2018-07-07T12:54:07.029Z,5.13
2018-07-07T12:56:35.963Z,4.60
2018-07-07T12:59:04.560Z,6.07
2018-07-07T13:01:33.325Z,4.50
2018-07-07T13:04:01.935Z,4.80
2018-07-07T13:06:30.544Z,3.63
2018-07-07T13:08:59.445Z,4.23
2018-07-07T13:11:28.104Z,3.90
2018-07-07T13:13:56.731Z,4.67
2018-07-07T13:16:25.340Z,3.73
2018-07-07T13:18:53.946Z,4.80
2018-07-07T13:21:22.719Z,3.60
2018-07-07T13:23:51.349Z,5.13
2018-07-07T13:26:20.063Z,5.50
2018-07-07T13:28:48.705Z,5.40
2018-07-07T13:31:17.260Z,4.70
2018-07-07T13:33:46.049Z,4.50
2018-07-07T13:36:14.592Z,4.80
2018-07-07T13:38:43.283Z,5.10
2018-07-07T13:41:11.800Z,4.93
2018-07-07T13:43:40.500Z,5.00
2018-07-07T13:46:09.413Z,5.37
2018-07-07T13:48:38.018Z,5.60
2018-07-07T13:51:06.742Z,6.50
2018-07-07T13:53:35.484Z,4.70
2018-07-07T13:56:04.120Z,5.77
2018-07-07T13:58:33.059Z,5.70
2018-07-07T14:01:01.657Z,5.83
2018-07-07T14:03:30.172Z,5.67
2018-07-07T14:05:58.768Z,6.17
2018-07-07T14:08:27.578Z,5.27
2018-07-07T14:10:56.212Z,5.63
2018-07-07T14:13:24.844Z,5.70
2018-07-07T14:15:53.442Z,4.60
2018-07-07T14:18:22.104Z,4.60
2018-07-07T14:20:50.680Z,4.23
2018-07-07T14:23:19.697Z,4.83
2018-07-07T14:25:48.360Z,4.90
2018-07-07T14:28:16.936Z,5.53
2018-07-07T14:30:45.588Z,4.50
2018-07-07T14:33:14.260Z,4.30
2018-07-07T14:35:42.984Z,4.90
2018-07-07T14:38:11.624Z,4.63
2018-07-07T14:41:23.386Z,4.50
2018-07-07T14:43:59.022Z,4.70
2018-07-07T14:46:28.068Z,4.40
2018-07-07T14:48:56.712Z,4.70
2018-07-07T14:51:25.300Z,5.17
2018-07-07T14:53:54.059Z,5.03
2018-07-07T14:56:24.044Z,4.27
2018-07-07T14:58:52.900Z,5.27
2018-07-07T15:01:21.449Z,4.00
2018-07-07T15:03:50.132Z,4.33
2018-07-07T15:06:18.739Z,5.00
2018-07-07T15:08:47.417Z,4.80
2018-07-07T15:11:16.076Z,5.90
2018-07-07T15:13:47.196Z,4.90
2018-07-07T15:16:15.828Z,5.10
2018-07-07T15:18:45.124Z,4.80
2018-07-07T15:21:13.692Z,5.20
2018-07-07T15:23:42.329Z,4.80
2018-07-07T15:26:10.908Z,5.17
2018-07-07T15:28:39.568Z,4.97
2018-07-07T15:31:08.196Z,4.90
2018-07-07T15:33:36.772Z,5.23
2018-07-07T15:36:05.489Z,5.60
2018-07-07T15:38:34.014Z,4.80
2018-07-07T15:41:02.820Z,5.50
2018-07-07T15:43:31.340Z,5.00
2018-07-07T15:45:59.974Z,5.10
2018-07-07T15:48:28.605Z,4.87
2018-07-07T15:50:57.286Z,5.50
2018-07-07T15:53:26.130Z,4.20
2018-07-07T15:55:54.658Z,4.50
2018-07-07T15:58:23.197Z,3.83
2018-07-07T16:00:51.942Z,3.13
2018-07-07T16:03:20.618Z,3.03
2018-07-07T16:05:49.396Z,3.20
2018-07-07T16:08:18.064Z,3.67
2018-07-07T16:10:46.690Z,2.93
2018-07-07T16:13:15.301Z,2.67
2018-07-07T16:15:43.988Z,2.60
2018-07-07T16:18:12.681Z,3.07
2018-07-07T16:20:41.232Z,1.80
2018-07-07T16:23:09.903Z,2.70
2018-07-07T16:25:38.557Z,2.03
2018-07-07T16:28:07.216Z,2.80
2018-07-07T16:30:35.804Z,2.40
2018-07-07T16:33:04.476Z,2.10
2018-07-07T16:35:33.132Z,1.90
2018-07-07T16:38:01.971Z,2.60
2018-07-07T16:40:30.571Z,1.87
2018-07-07T16:43:00.474Z,1.87
2018-07-07T16:45:29.161Z,1.57
2018-07-07T16:47:57.760Z,1.20
2018-07-07T16:50:26.428Z,1.33
2018-07-07T16:52:55.064Z,2.00
2018-07-07T16:55:23.959Z,2.53
2018-07-07T16:57:52.587Z,1.50
2018-07-07T17:00:21.315Z,1.93
2018-07-07T17:02:50.844Z,1.80
2018-07-07T17:05:19.464Z,1.37
2018-07-07T17:07:48.612Z,1.77
2018-07-07T17:10:17.892Z,1.90
2018-07-07T17:12:46.900Z,1.47
2018-07-07T17:15:15.536Z,2.20
2018-07-07T17:17:44.228Z,2.27
2018-07-07T17:20:12.952Z,1.40
2018-07-07T17:22:41.656Z,2.10
2018-07-07T17:25:10.866Z,1.57
2018-07-07T17:27:40.068Z,1.97
2018-07-07T17:30:08.832Z,1.80
2018-07-07T17:32:37.472Z,2.40
2018-07-07T17:35:06.373Z,1.43
2018-07-07T17:37:35.200Z,1.63
2018-07-07T17:40:03.857Z,1.63
2018-07-07T17:42:32.845Z,1.77
2018-07-07T17:45:02.469Z,1.80
2018-07-07T17:47:31.148Z,1.20
2018-07-07T17:50:02.057Z,1.50
2018-07-07T17:52:32.021Z,1.43
2018-07-07T17:55:01.574Z,1.60
2018-07-07T17:57:30.180Z,1.83
2018-07-07T17:59:58.840Z,2.00
2018-07-07T18:02:27.797Z,1.93
2018-07-07T18:04:56.637Z,1.83
2018-07-07T18:07:25.583Z,1.73
2018-07-07T18:09:54.396Z,1.57
2018-07-07T18:12:23.149Z,2.17
2018-07-07T18:14:51.722Z,1.80
2018-07-07T18:17:20.372Z,1.60
2018-07-07T18:19:48.908Z,1.80
2018-07-07T18:22:17.552Z,1.57
2018-07-07T18:24:46.112Z,1.73
2018-07-07T18:27:14.756Z,1.77
2018-07-07T18:29:43.304Z,1.60
2018-07-07T18:32:11.868Z,2.33
2018-07-07T18:34:40.452Z,2.07
2018-07-07T18:37:09.056Z,2.10
2018-07-07T18:39:37.757Z,2.27
2018-07-07T18:42:06.632Z,1.73
2018-07-07T18:44:35.284Z,2.23
2018-07-07T18:47:03.896Z,1.90
2018-07-07T18:49:32.542Z,2.70
2018-07-07T18:52:01.302Z,3.00
2018-07-07T18:54:29.905Z,2.50
2018-07-07T18:56:58.652Z,2.20
2018-07-07T18:59:27.418Z,2.53
2018-07-07T19:01:56.134Z,2.07
2018-07-07T19:04:24.738Z,1.97
2018-07-07T19:06:53.297Z,2.33
2018-07-07T19:09:21.876Z,1.87
2018-07-07T19:11:50.584Z,1.83
2018-07-07T19:14:19.215Z,2.73
2018-07-07T19:16:48.009Z,2.00
2018-07-07T19:19:16.644Z,1.70
2018-07-07T19:21:50.367Z,2.30
2018-07-07T19:24:24.164Z,1.50
2018-07-07T19:26:53.992Z,2.20
2018-07-07T19:29:23.605Z,1.90
2018-07-07T19:31:57.516Z,1.90
2018-07-07T19:34:31.484Z,1.33
2018-07-07T19:37:05.405Z,1.40
2018-07-07T19:39:34.004Z,1.63
2018-07-07T19:42:02.857Z,1.50
2018-07-07T19:44:31.436Z,1.57
2018-07-07T19:47:00.022Z,1.77
2018-07-07T19:49:28.650Z,1.80
2018-07-07T19:51:57.300Z,2.00
2018-07-07T19:54:25.901Z,2.43
2018-07-07T19:56:54.488Z,2.17
2018-07-07T19:59:23.036Z,1.70
2018-07-07T20:01:51.704Z,1.70
2018-07-07T20:04:20.236Z,2.03
2018-07-07T20:06:48.889Z,1.90
2018-07-07T20:09:17.805Z,2.17
2018-07-07T20:11:46.697Z,2.57
2018-07-07T20:14:21.072Z,1.87
2018-07-07T20:17:08.757Z,2.00
2018-07-07T20:19:53.996Z,2.33
2018-07-07T20:22:22.573Z,2.10
2018-07-07T20:24:51.160Z,1.80
2018-07-07T20:27:24.897Z,2.00
2018-07-07T20:29:53.532Z,2.03
2018-07-07T20:32:27.256Z,2.40
2018-07-07T20:34:55.913Z,2.60
2018-07-07T20:37:24.450Z,2.17
2018-07-07T20:39:53.069Z,2.10
2018-07-07T20:42:21.729Z,2.10
2018-07-07T20:44:50.311Z,2.10
2018-07-07T20:47:19.264Z,2.30
2018-07-07T20:49:47.901Z,2.20
2018-07-07T20:52:16.576Z,2.40
2018-07-07T20:54:45.180Z,2.20
2018-07-07T20:57:13.754Z,1.77
2018-07-07T20:59:42.604Z,1.90
2018-07-07T21:02:11.144Z,2.30
2018-07-07T21:04:39.712Z,2.20
2018-07-07T21:07:08.248Z,1.67
2018-07-07T21:09:36.864Z,2.17
2018-07-07T21:12:05.503Z,2.00
2018-07-07T21:14:34.128Z,2.33
2018-07-07T21:17:02.696Z,2.00
2018-07-07T21:19:31.348Z,2.50
2018-07-07T21:22:00.073Z,1.90
2018-07-07T21:24:28.644Z,2.13
2018-07-07T21:26:57.227Z,1.90
2018-07-07T21:29:25.904Z,1.70
2018-07-07T21:31:54.496Z,2.27
2018-07-07T21:34:23.136Z,2.37
2018-07-07T21:36:51.825Z,2.43
2018-07-07T21:39:20.829Z,1.80
2018-07-07T21:41:49.369Z,2.60
2018-07-07T21:44:18.082Z,2.87
2018-07-07T21:46:46.692Z,2.33
2018-07-07T21:49:15.293Z,2.63
2018-07-07T21:51:43.908Z,2.13
2018-07-07T21:54:12.488Z,2.40
2018-07-07T21:56:41.115Z,1.97
2018-07-07T21:59:14.992Z,2.97
2018-07-07T22:01:56.140Z,2.37
2018-07-07T22:04:30.762Z,2.83
2018-07-07T22:07:05.004Z,2.67
2018-07-07T22:09:34.604Z,2.27
2018-07-07T22:12:03.641Z,1.93
2018-07-07T22:14:32.618Z,2.40
2018-07-07T22:17:01.189Z,2.23
2018-07-07T22:19:29.788Z,3.30
2018-07-07T22:22:05.533Z,2.03
2018-07-07T22:24:34.435Z,2.40
2018-07-07T22:27:05.053Z,2.90
2018-07-07T22:29:34.069Z,3.07
2018-07-07T22:32:03.970Z,2.93
2018-07-07T22:34:33.918Z,2.57
2018-07-07T22:37:02.625Z,3.73
2018-07-07T22:39:34.728Z,2.40
2018-07-07T22:42:04.504Z,2.90
2018-07-07T22:44:34.029Z,2.20
2018-07-07T22:47:02.745Z,2.63
2018-07-07T22:49:31.890Z,3.07
2018-07-07T22:52:00.556Z,2.07
2018-07-07T22:54:29.162Z,3.13
2018-07-07T22:56:58.046Z,2.60
2018-07-07T22:59:26.597Z,2.30
2018-07-07T23:01:55.246Z,2.60
2018-07-07T23:04:23.938Z,3.00
2018-07-07T23:06:52.580Z,2.57
2018-07-07T23:09:21.274Z,2.17
2018-07-07T23:11:49.936Z,2.73
2018-07-07T23:14:18.734Z,3.10
2018-07-07T23:16:47.313Z,2.00
2018-07-07T23:19:32.442Z,2.80
2018-07-07T23:22:17.493Z,2.67
2018-07-07T23:24:46.037Z,2.63
2018-07-07T23:27:14.628Z,2.53
2018-07-07T23:29:43.509Z,2.43
2018-07-07T23:32:12.156Z,3.77
2018-07-07T23:34:40.732Z,3.00
2018-07-07T23:37:09.380Z,3.67
2018-07-07T23:39:38.000Z,3.30
2018-07-07T23:42:06.593Z,3.43
2018-07-07T23:44:35.280Z,2.77
2018-07-07T23:47:03.893Z,4.50
2018-07-07T23:49:32.452Z,3.80
2018-07-07T23:52:01.584Z,4.50
2018-07-07T23:54:30.221Z,3.67
2018-07-07T23:56:58.828Z,3.90
2018-07-07T23:59:27.448Z,3.93
